createdAt,value
2022-10-20T00:00:51.418Z,0
2022-10-20T00:01:54.337Z,0
2022-10-20T00:02:51.919Z,0
2022-10-20T00:03:51.475Z,0
2022-10-20T00:04:54.282Z,0
2022-10-20T00:05:51.488Z,0
2022-10-20T00:06:51.443Z,0
2022-10-20T00:07:51.495Z,0
2022-10-20T00:08:51.851Z,0
2022-10-20T00:09:51.454Z,0
2022-10-20T00:10:54.496Z,0
2022-10-20T00:11:51.448Z,0
2022-10-20T00:12:51.466Z,0
2022-10-20T00:13:51.470Z,0
2022-10-20T00:14:51.448Z,0
2022-10-20T00:15:54.550Z,0
2022-10-20T00:16:51.435Z,0
2022-10-20T00:17:51.466Z,0
2022-10-20T00:18:51.450Z,0
2022-10-20T00:19:51.451Z,0
2022-10-20T00:20:51.455Z,0
2022-10-20T00:21:54.200Z,0
2022-10-20T00:22:51.470Z,0
2022-10-20T00:23:51.481Z,0
2022-10-20T00:24:51.456Z,0
2022-10-20T00:25:51.451Z,0
2022-10-20T00:26:54.982Z,0
2022-10-20T00:27:51.491Z,0
2022-10-20T00:28:51.554Z,0
2022-10-20T00:29:51.496Z,0
2022-10-20T00:30:51.491Z,0
2022-10-20T00:31:51.523Z,0
2022-10-20T00:32:54.563Z,0
2022-10-20T00:33:51.489Z,0
2022-10-20T00:34:51.487Z,0
2022-10-20T00:35:51.478Z,0
2022-10-20T00:36:57.293Z,0
2022-10-20T00:37:54.617Z,0
2022-10-20T00:38:51.503Z,0
2022-10-20T00:39:51.521Z,0
2022-10-20T00:40:51.483Z,0
2022-10-20T00:41:51.495Z,0
2022-10-20T00:42:54.621Z,0
2022-10-20T00:43:51.541Z,0
2022-10-20T00:44:51.480Z,0
2022-10-20T00:45:51.771Z,0
2022-10-20T00:46:54.604Z,0
2022-10-20T00:47:52.705Z,0
2022-10-20T00:48:54.605Z,0
2022-10-20T00:49:51.490Z,0
2022-10-20T00:50:51.492Z,0
2022-10-20T00:51:52.587Z,0
2022-10-20T00:52:51.507Z,0
2022-10-20T00:53:53.362Z,0
2022-10-20T00:54:51.493Z,0
2022-10-20T00:55:51.526Z,0
2022-10-20T00:56:51.698Z,0
2022-10-20T00:57:51.655Z,0
2022-10-20T00:58:51.536Z,0
2022-10-20T00:59:51.522Z,0
2022-10-20T01:00:51.517Z,0
2022-10-20T01:01:52.144Z,0
2022-10-20T01:02:51.545Z,0
2022-10-20T01:03:51.590Z,0
2022-10-20T01:04:54.623Z,0
2022-10-20T01:05:51.517Z,0
2022-10-20T01:06:51.530Z,0
2022-10-20T01:07:51.529Z,0
2022-10-20T01:08:52.049Z,0
2022-10-20T01:09:51.570Z,0
2022-10-20T01:10:51.527Z,0
2022-10-20T01:11:51.556Z,0
2022-10-20T01:12:51.538Z,0
2022-10-20T01:13:54.337Z,0
2022-10-20T01:14:51.666Z,0
2022-10-20T01:15:54.539Z,0
2022-10-20T01:16:51.570Z,0
2022-10-20T01:17:51.571Z,0
2022-10-20T01:18:51.575Z,0
2022-10-20T01:19:54.425Z,0
2022-10-20T01:20:51.570Z,0
2022-10-20T01:21:51.577Z,0
2022-10-20T01:22:51.603Z,0
2022-10-20T01:23:51.713Z,0
2022-10-20T01:24:51.579Z,0
2022-10-20T01:25:51.771Z,0
2022-10-20T01:26:51.551Z,0
2022-10-20T01:27:51.646Z,0
2022-10-20T01:28:51.567Z,0
2022-10-20T01:29:52.598Z,0
2022-10-20T01:30:51.568Z,0
2022-10-20T01:31:54.591Z,0
2022-10-20T01:32:51.568Z,0
2022-10-20T01:33:51.635Z,0
2022-10-20T01:34:57.650Z,0
2022-10-20T01:35:51.734Z,0
2022-10-20T01:36:54.370Z,0
2022-10-20T01:38:02.363Z,0
2022-10-20T01:38:51.604Z,0
2022-10-20T01:39:51.574Z,0
2022-10-20T01:40:51.569Z,0
2022-10-20T01:41:51.570Z,0
2022-10-20T01:42:54.349Z,0
2022-10-20T01:43:51.638Z,0
2022-10-20T01:44:51.579Z,0
2022-10-20T01:45:51.605Z,0
2022-10-20T01:46:51.654Z,0
2022-10-20T01:47:54.618Z,0
2022-10-20T01:48:51.600Z,0
2022-10-20T01:49:51.612Z,0
2022-10-20T01:50:51.630Z,0
2022-10-20T01:51:52.608Z,0
2022-10-20T01:52:51.594Z,0
2022-10-20T01:53:54.431Z,0
2022-10-20T01:54:51.618Z,0
2022-10-20T01:55:51.584Z,0
2022-10-20T01:56:51.598Z,0
2022-10-20T01:57:51.601Z,0
2022-10-20T01:58:55.433Z,0
2022-10-20T01:59:51.604Z,0
2022-10-20T02:00:52.045Z,0
2022-10-20T02:01:51.846Z,0
2022-10-20T02:02:51.603Z,0
2022-10-20T02:03:51.628Z,0
2022-10-20T02:04:54.682Z,0
2022-10-20T02:05:51.603Z,0
2022-10-20T02:06:51.639Z,0
2022-10-20T02:07:52.189Z,0
2022-10-20T02:08:51.965Z,0
2022-10-20T02:10:51.638Z,0
2022-10-20T02:11:51.626Z,0
2022-10-20T02:12:51.624Z,0
2022-10-20T02:13:51.705Z,0
2022-10-20T02:14:51.655Z,0
2022-10-20T02:15:54.456Z,0
2022-10-20T02:16:51.632Z,0
2022-10-20T02:17:51.644Z,0
2022-10-20T02:18:51.888Z,0
2022-10-20T02:19:51.759Z,0
2022-10-20T02:20:54.499Z,0
2022-10-20T02:21:51.650Z,0
2022-10-20T02:22:51.710Z,0
2022-10-20T02:23:54.704Z,0
2022-10-20T02:24:51.639Z,0
2022-10-20T02:25:51.651Z,0
2022-10-20T02:26:54.654Z,0
2022-10-20T02:27:51.766Z,0
2022-10-20T02:28:51.655Z,0
2022-10-20T02:29:51.942Z,0
2022-10-20T02:30:56.552Z,0
2022-10-20T02:31:54.458Z,0
2022-10-20T02:32:51.674Z,0
2022-10-20T02:33:51.671Z,0
2022-10-20T02:34:51.807Z,0
2022-10-20T02:35:51.703Z,0
2022-10-20T02:36:52.695Z,0
2022-10-20T02:37:52.772Z,0
2022-10-20T02:38:54.469Z,0
2022-10-20T02:39:51.702Z,0
2022-10-20T02:40:52.758Z,0
2022-10-20T02:41:51.697Z,0
2022-10-20T02:42:54.827Z,0
2022-10-20T02:43:51.725Z,0
2022-10-20T02:44:51.742Z,0
2022-10-20T02:45:51.711Z,0
2022-10-20T02:46:56.761Z,0
2022-10-20T02:47:51.759Z,0
2022-10-20T02:48:54.532Z,0
2022-10-20T02:49:51.719Z,0
2022-10-20T02:50:52.780Z,0
2022-10-20T02:51:51.693Z,0
2022-10-20T02:52:51.718Z,0
2022-10-20T02:53:54.829Z,0
2022-10-20T02:54:51.712Z,0
2022-10-20T02:55:51.805Z,0
2022-10-20T02:56:51.675Z,0
2022-10-20T02:57:51.894Z,0
2022-10-20T02:58:51.777Z,0
2022-10-20T02:59:54.470Z,0
2022-10-20T03:00:51.702Z,0
2022-10-20T03:01:52.158Z,0
2022-10-20T03:02:51.841Z,0
2022-10-20T03:03:51.695Z,0
2022-10-20T03:04:54.493Z,0
2022-10-20T03:05:51.698Z,0
2022-10-20T03:06:51.705Z,0
2022-10-20T03:07:51.704Z,0
2022-10-20T03:08:52.167Z,0
2022-10-20T03:09:52.427Z,0
2022-10-20T03:10:51.782Z,0
2022-10-20T03:11:51.870Z,0
2022-10-20T03:12:52.281Z,0
2022-10-20T03:13:51.700Z,0
2022-10-20T03:14:51.742Z,0
2022-10-20T03:15:54.470Z,0
2022-10-20T03:16:51.702Z,0
2022-10-20T03:17:51.718Z,0
2022-10-20T03:18:52.275Z,0
2022-10-20T03:19:51.730Z,0
2022-10-20T03:20:52.831Z,0
2022-10-20T03:21:51.717Z,0
2022-10-20T03:22:51.784Z,0
2022-10-20T03:23:51.724Z,0
2022-10-20T03:24:51.856Z,0
2022-10-20T03:25:51.729Z,0
2022-10-20T03:26:51.757Z,0
2022-10-20T03:27:51.779Z,0
2022-10-20T03:28:51.732Z,0
2022-10-20T03:29:51.785Z,0
2022-10-20T03:30:51.747Z,0
2022-10-20T03:31:54.879Z,0
2022-10-20T03:32:51.808Z,0
2022-10-20T03:33:51.728Z,0
2022-10-20T03:34:52.000Z,0
2022-10-20T03:35:51.756Z,0
2022-10-20T03:36:51.795Z,0
2022-10-20T03:37:51.742Z,0
2022-10-20T03:38:51.785Z,0
2022-10-20T03:39:51.761Z,0
2022-10-20T03:40:55.008Z,0
2022-10-20T03:41:51.788Z,0
2022-10-20T03:42:51.908Z,0
2022-10-20T03:43:51.789Z,0
2022-10-20T03:44:51.833Z,0
2022-10-20T03:45:51.772Z,0
2022-10-20T03:46:51.764Z,0
2022-10-20T03:47:51.771Z,0
2022-10-20T03:48:51.771Z,0
2022-10-20T03:49:51.835Z,0
2022-10-20T03:50:51.815Z,0
2022-10-20T03:51:51.821Z,0
2022-10-20T03:52:51.894Z,0
2022-10-20T03:54:51.794Z,0
2022-10-20T03:55:51.774Z,0
2022-10-20T03:56:51.787Z,0
2022-10-20T03:57:51.773Z,0
2022-10-20T03:58:54.922Z,0
2022-10-20T03:59:51.819Z,0
2022-10-20T04:00:51.770Z,0
2022-10-20T04:01:52.184Z,0
2022-10-20T04:02:51.787Z,0
2022-10-20T04:03:54.789Z,0
2022-10-20T04:04:55.986Z,0
2022-10-20T04:05:51.788Z,0
2022-10-20T04:06:52.866Z,0
2022-10-20T04:07:51.795Z,0
2022-10-20T04:08:52.313Z,0
2022-10-20T04:09:54.924Z,0
2022-10-20T04:10:51.806Z,0
2022-10-20T04:11:51.815Z,0
2022-10-20T04:12:51.837Z,0
2022-10-20T04:13:51.813Z,0
2022-10-20T04:14:54.763Z,0
2022-10-20T04:15:51.792Z,0
2022-10-20T04:16:51.798Z,0
2022-10-20T04:17:51.814Z,0
2022-10-20T04:18:51.814Z,0
2022-10-20T04:19:51.909Z,0
2022-10-20T04:20:56.579Z,0
2022-10-20T04:21:51.810Z,0
2022-10-20T04:22:52.382Z,0
2022-10-20T04:23:51.824Z,0
2022-10-20T04:24:51.833Z,0
2022-10-20T04:25:54.948Z,0
2022-10-20T04:26:52.100Z,0
2022-10-20T04:27:51.805Z,0
2022-10-20T04:28:51.849Z,0
2022-10-20T04:29:51.851Z,0
2022-10-20T04:30:51.905Z,0
2022-10-20T04:32:00.029Z,0
2022-10-20T04:32:51.829Z,0
2022-10-20T04:33:51.822Z,0
2022-10-20T04:34:51.845Z,0
2022-10-20T04:35:53.139Z,0
2022-10-20T04:37:51.823Z,0
2022-10-20T04:38:51.858Z,0
2022-10-20T04:39:51.902Z,0
2022-10-20T04:40:51.833Z,0
2022-10-20T04:41:51.889Z,0
2022-10-20T04:42:54.965Z,0
2022-10-20T04:43:51.869Z,0
2022-10-20T04:44:52.146Z,0
2022-10-20T04:45:51.899Z,0
2022-10-20T04:46:51.919Z,0
2022-10-20T04:47:54.730Z,0
2022-10-20T04:48:51.839Z,0
2022-10-20T04:49:51.906Z,0
2022-10-20T04:50:51.845Z,0
2022-10-20T04:51:51.866Z,0
2022-10-20T04:52:51.847Z,0
2022-10-20T04:53:54.851Z,0
2022-10-20T04:54:51.896Z,0
2022-10-20T04:55:51.864Z,0
2022-10-20T04:56:51.952Z,0
2022-10-20T04:57:51.856Z,0
2022-10-20T04:58:55.022Z,0
2022-10-20T04:59:51.906Z,0
2022-10-20T05:00:51.881Z,0
2022-10-20T05:01:52.162Z,0
2022-10-20T05:02:51.993Z,0
2022-10-20T05:03:51.916Z,0
2022-10-20T05:04:52.968Z,0
2022-10-20T05:05:51.880Z,0
2022-10-20T05:06:51.899Z,0
2022-10-20T05:07:52.399Z,0
2022-10-20T05:08:52.286Z,0
2022-10-20T05:09:52.155Z,0
2022-10-20T05:10:51.904Z,0
2022-10-20T05:11:51.874Z,0
2022-10-20T05:12:51.878Z,0
2022-10-20T05:13:51.914Z,0
2022-10-20T05:14:51.986Z,0
2022-10-20T05:15:54.960Z,0
2022-10-20T05:16:51.967Z,0
2022-10-20T05:17:51.922Z,0
2022-10-20T05:18:51.986Z,0
2022-10-20T05:19:52.365Z,0
2022-10-20T05:21:17.149Z,0
2022-10-20T05:21:51.938Z,0
2022-10-20T05:22:51.965Z,0
2022-10-20T05:23:51.898Z,0
2022-10-20T05:24:53.169Z,0
2022-10-20T05:25:51.922Z,0
2022-10-20T05:26:55.244Z,0
2022-10-20T05:27:52.914Z,0
2022-10-20T05:28:51.931Z,0
2022-10-20T05:29:55.587Z,0
2022-10-20T05:30:51.936Z,0
2022-10-20T05:31:55.103Z,0
2022-10-20T05:32:51.931Z,0
2022-10-20T05:33:51.912Z,0
2022-10-20T05:34:51.986Z,0
2022-10-20T05:35:52.164Z,0
2022-10-20T05:36:54.835Z,0
2022-10-20T05:37:51.994Z,0
2022-10-20T05:38:51.940Z,0
2022-10-20T05:39:53.170Z,0
2022-10-20T05:40:52.394Z,0
2022-10-20T05:41:51.962Z,0
2022-10-20T05:42:54.879Z,0
2022-10-20T05:43:51.952Z,0
2022-10-20T05:44:51.998Z,0
2022-10-20T05:45:52.111Z,0
2022-10-20T05:46:52.004Z,0
2022-10-20T05:47:54.877Z,0
2022-10-20T05:48:52.425Z,0
2022-10-20T05:49:51.937Z,0
2022-10-20T05:50:52.200Z,0
2022-10-20T05:51:51.968Z,0
2022-10-20T05:52:52.024Z,0
2022-10-20T05:53:51.951Z,0
2022-10-20T05:54:51.925Z,0
2022-10-20T05:55:51.950Z,0
2022-10-20T05:56:52.333Z,0
2022-10-20T05:57:51.985Z,0
2022-10-20T05:58:55.164Z,0
2022-10-20T05:59:51.944Z,0
2022-10-20T06:00:51.980Z,0
2022-10-20T06:01:52.104Z,0
2022-10-20T06:02:51.995Z,0
2022-10-20T06:03:52.010Z,0
2022-10-20T06:04:52.037Z,0
2022-10-20T06:05:54.960Z,0
2022-10-20T06:06:52.024Z,0
2022-10-20T06:07:52.006Z,0
2022-10-20T06:08:52.748Z,0
2022-10-20T06:09:54.902Z,0
2022-10-20T06:10:51.977Z,0
2022-10-20T06:11:51.987Z,5
2022-10-20T06:12:51.963Z,5
2022-10-20T06:13:59.951Z,5
2022-10-20T06:14:52.413Z,5
2022-10-20T06:15:51.999Z,5
2022-10-20T06:16:51.983Z,5
2022-10-20T06:17:53.365Z,5
2022-10-20T06:18:52.442Z,5
2022-10-20T06:19:52.562Z,5
2022-10-20T06:20:52.009Z,5
2022-10-20T06:21:54.131Z,5
2022-10-20T06:22:52.029Z,5
2022-10-20T06:23:52.505Z,5
2022-10-20T06:24:52.388Z,5
2022-10-20T06:25:55.134Z,5
2022-10-20T06:26:52.016Z,5
2022-10-20T06:27:52.470Z,10
2022-10-20T06:28:51.998Z,10
2022-10-20T06:29:51.990Z,10
2022-10-20T06:30:53.930Z,15
2022-10-20T06:31:51.986Z,10
2022-10-20T06:32:51.997Z,10
2022-10-20T06:33:52.095Z,10
2022-10-20T06:34:52.007Z,10
2022-10-20T06:35:52.478Z,10
2022-10-20T06:36:54.840Z,10
2022-10-20T06:37:52.492Z,10
2022-10-20T06:38:52.541Z,10
2022-10-20T06:39:52.005Z,10
2022-10-20T06:40:52.019Z,10
2022-10-20T06:41:58.021Z,10
2022-10-20T06:42:52.416Z,10
2022-10-20T06:43:52.066Z,10
2022-10-20T06:44:52.424Z,15
2022-10-20T06:45:52.067Z,15
2022-10-20T06:46:52.044Z,20
2022-10-20T06:47:53.245Z,15
2022-10-20T06:48:55.011Z,15
2022-10-20T06:49:52.022Z,20
2022-10-20T06:50:52.046Z,20
2022-10-20T06:51:52.259Z,20
2022-10-20T06:52:53.231Z,20
2022-10-20T06:53:59.122Z,30
2022-10-20T06:54:52.455Z,40
2022-10-20T06:55:52.045Z,50
2022-10-20T06:56:52.395Z,65
2022-10-20T06:57:52.051Z,65
2022-10-20T06:58:54.910Z,65
2022-10-20T06:59:52.448Z,55
2022-10-20T07:00:52.077Z,55
2022-10-20T07:01:52.571Z,55
2022-10-20T07:02:52.070Z,55
2022-10-20T07:03:55.139Z,60
2022-10-20T07:04:52.057Z,55
2022-10-20T07:05:52.540Z,55
2022-10-20T07:06:52.429Z,55
2022-10-20T07:07:52.581Z,55
2022-10-20T07:08:52.617Z,55
2022-10-20T07:09:55.673Z,50
2022-10-20T07:10:52.225Z,50
2022-10-20T07:11:52.067Z,50
2022-10-20T07:12:52.075Z,55
2022-10-20T07:13:52.069Z,55
2022-10-20T07:14:54.924Z,60
2022-10-20T07:15:52.077Z,60
2022-10-20T07:16:52.101Z,55
2022-10-20T07:17:52.420Z,55
2022-10-20T07:18:56.255Z,55
2022-10-20T07:19:52.085Z,60
2022-10-20T07:20:55.261Z,55
2022-10-20T07:21:54.857Z,60
2022-10-20T07:22:53.139Z,55
2022-10-20T07:23:52.123Z,50
2022-10-20T07:24:52.224Z,50
2022-10-20T07:25:55.539Z,50
2022-10-20T07:26:52.613Z,60
2022-10-20T07:27:52.101Z,55
2022-10-20T07:28:58.263Z,60
2022-10-20T07:29:52.096Z,60
2022-10-20T07:30:52.510Z,65
2022-10-20T07:31:56.022Z,65
2022-10-20T07:32:52.085Z,65
2022-10-20T07:34:33.550Z,75
2022-10-20T07:34:52.291Z,70
2022-10-20T07:35:52.101Z,75
2022-10-20T07:36:55.430Z,70
2022-10-20T07:37:52.552Z,70
2022-10-20T07:38:52.485Z,70
2022-10-20T07:39:52.542Z,70
2022-10-20T07:40:52.107Z,70
2022-10-20T07:41:52.251Z,70
2022-10-20T07:42:54.919Z,70
2022-10-20T07:43:52.128Z,65
2022-10-20T07:44:52.169Z,50
2022-10-20T07:45:52.103Z,70
2022-10-20T07:46:52.133Z,75
2022-10-20T07:47:56.122Z,80
2022-10-20T07:48:52.103Z,80
2022-10-20T07:49:53.906Z,70
2022-10-20T07:50:52.475Z,70
2022-10-20T07:51:52.288Z,70
2022-10-20T07:52:52.143Z,70
2022-10-20T07:53:56.865Z,70
2022-10-20T07:54:58.036Z,75
2022-10-20T07:55:52.582Z,75
2022-10-20T07:56:52.587Z,75
2022-10-20T07:57:52.226Z,70
2022-10-20T07:58:55.509Z,80
2022-10-20T07:59:54.991Z,75
2022-10-20T08:00:52.145Z,70
2022-10-20T08:01:55.900Z,70
2022-10-20T08:02:52.259Z,55
2022-10-20T08:03:55.219Z,60
2022-10-20T08:04:52.140Z,65
2022-10-20T08:05:52.176Z,60
2022-10-20T08:06:52.488Z,65
2022-10-20T08:07:52.521Z,55
2022-10-20T08:08:52.950Z,60
2022-10-20T08:09:55.184Z,60
2022-10-20T08:10:52.170Z,65
2022-10-20T08:11:58.371Z,70
2022-10-20T08:12:52.157Z,65
2022-10-20T08:13:52.311Z,75
2022-10-20T08:14:55.542Z,70
2022-10-20T08:16:39.141Z,70
2022-10-20T08:17:02.511Z,70
2022-10-20T08:17:52.162Z,50
2022-10-20T08:20:39.311Z,70
2022-10-20T08:21:52.194Z,70
2022-10-20T08:22:52.563Z,75
2022-10-20T08:23:52.220Z,80
2022-10-20T08:24:52.182Z,75
2022-10-20T08:25:55.037Z,75
2022-10-20T08:26:52.211Z,80
2022-10-20T08:27:52.403Z,75
2022-10-20T08:28:52.181Z,85
2022-10-20T08:30:29.382Z,85
2022-10-20T08:30:52.179Z,85
2022-10-20T08:31:52.256Z,85
2022-10-20T08:32:52.208Z,85
2022-10-20T08:33:58.186Z,85
2022-10-20T08:34:52.197Z,85
2022-10-20T08:35:52.193Z,85
2022-10-20T08:36:52.216Z,75
2022-10-20T08:37:52.237Z,75
2022-10-20T08:38:52.257Z,75
2022-10-20T08:39:52.184Z,80
2022-10-20T08:40:52.238Z,75
2022-10-20T08:42:16.607Z,75
2022-10-20T08:42:52.203Z,70
2022-10-20T08:43:52.239Z,75
2022-10-20T08:44:52.213Z,75
2022-10-20T08:45:52.363Z,75
2022-10-20T08:46:52.228Z,75
2022-10-20T08:47:52.231Z,75
2022-10-20T08:48:52.220Z,70
2022-10-20T08:49:52.218Z,65
2022-10-20T08:50:52.247Z,75
2022-10-20T08:51:52.239Z,80
2022-10-20T08:52:55.367Z,80
2022-10-20T08:53:52.262Z,85
2022-10-20T08:54:52.259Z,80
2022-10-20T08:55:52.236Z,75
2022-10-20T08:56:52.256Z,75
2022-10-20T08:57:57.881Z,75
2022-10-20T08:58:52.320Z,75
2022-10-20T08:59:52.263Z,80
2022-10-20T09:00:52.250Z,75
2022-10-20T09:01:52.800Z,65
2022-10-20T09:02:52.250Z,60
2022-10-20T09:03:55.115Z,65
2022-10-20T09:04:52.288Z,75
2022-10-20T09:05:52.239Z,85
2022-10-20T09:06:52.262Z,80
2022-10-20T09:07:52.515Z,80
2022-10-20T09:08:55.787Z,75
2022-10-20T09:09:52.252Z,65
2022-10-20T09:10:52.335Z,70
2022-10-20T09:11:52.271Z,65
2022-10-20T09:12:52.262Z,65
2022-10-20T09:13:52.566Z,70
2022-10-20T09:14:55.453Z,75
2022-10-20T09:15:52.266Z,75
2022-10-20T09:17:15.604Z,75
2022-10-20T09:17:52.247Z,75
2022-10-20T09:18:52.357Z,65
2022-10-20T09:19:55.023Z,60
2022-10-20T09:20:52.281Z,65
2022-10-20T09:21:52.305Z,65
2022-10-20T09:22:52.278Z,65
2022-10-20T09:23:53.642Z,60
2022-10-20T09:24:52.329Z,60
2022-10-20T09:25:53.871Z,70
2022-10-20T09:27:11.004Z,70
2022-10-20T09:28:01.073Z,60
2022-10-20T09:29:21.829Z,75
2022-10-20T09:29:55.181Z,75
2022-10-20T09:30:55.324Z,65
2022-10-20T09:31:52.346Z,75
2022-10-20T09:32:57.069Z,70
2022-10-20T09:33:52.330Z,60
2022-10-20T09:34:52.479Z,45
2022-10-20T09:35:55.223Z,60
2022-10-20T09:36:55.469Z,60
2022-10-20T09:37:52.344Z,65
2022-10-20T09:38:52.313Z,65
2022-10-20T09:39:58.723Z,65
2022-10-20T09:40:52.309Z,65
2022-10-20T09:41:53.583Z,70
2022-10-20T09:42:52.327Z,70
2022-10-20T09:43:58.307Z,70
2022-10-20T09:44:52.354Z,70
2022-10-20T09:45:52.338Z,75
2022-10-20T09:46:52.371Z,75
2022-10-20T09:47:55.327Z,80
2022-10-20T09:48:52.488Z,80
2022-10-20T09:49:54.229Z,80
2022-10-20T09:50:52.325Z,80
2022-10-20T09:52:55.206Z,70
2022-10-20T09:53:52.345Z,75
2022-10-20T09:54:52.323Z,75
2022-10-20T09:55:52.342Z,80
2022-10-20T09:56:52.350Z,80
2022-10-20T09:57:52.341Z,80
2022-10-20T09:58:55.440Z,80
2022-10-20T09:59:52.347Z,80
2022-10-20T10:00:52.658Z,80
2022-10-20T10:01:52.359Z,80
2022-10-20T10:02:52.368Z,85
2022-10-20T10:03:55.242Z,80
2022-10-20T10:04:52.395Z,80
2022-10-20T10:05:55.147Z,80
2022-10-20T10:06:52.392Z,80
2022-10-20T10:07:52.369Z,80
2022-10-20T10:08:52.656Z,80
2022-10-20T10:09:56.562Z,80
2022-10-20T10:10:52.374Z,80
2022-10-20T10:11:52.415Z,80
2022-10-20T10:12:52.434Z,80
2022-10-20T10:13:52.381Z,70
2022-10-20T10:14:55.298Z,70
2022-10-20T10:15:52.368Z,70
2022-10-20T10:16:52.407Z,70
2022-10-20T10:17:52.363Z,70
2022-10-20T10:18:58.406Z,45
2022-10-20T10:19:58.740Z,50
2022-10-20T10:20:55.621Z,50
2022-10-20T10:21:52.445Z,55
2022-10-20T10:22:52.395Z,45
2022-10-20T10:23:52.405Z,45
2022-10-20T10:24:52.391Z,45
2022-10-20T10:25:53.479Z,45
2022-10-20T10:26:55.412Z,55
2022-10-20T10:27:52.396Z,55
2022-10-20T10:28:52.423Z,45
2022-10-20T10:29:52.444Z,35
2022-10-20T10:30:59.179Z,30
2022-10-20T10:31:55.244Z,30
2022-10-20T10:32:52.408Z,30
2022-10-20T10:33:52.442Z,30
2022-10-20T10:34:52.532Z,35
2022-10-20T10:35:52.420Z,30
2022-10-20T10:36:55.290Z,35
2022-10-20T10:37:52.886Z,35
2022-10-20T10:38:52.452Z,30
2022-10-20T10:39:52.427Z,35
2022-10-20T10:40:52.440Z,40
2022-10-20T10:41:54.209Z,45
2022-10-20T10:42:52.438Z,60
2022-10-20T10:43:56.913Z,60
2022-10-20T10:44:52.405Z,65
2022-10-20T10:45:52.800Z,45
2022-10-20T10:46:52.494Z,45
2022-10-20T10:47:53.480Z,60
2022-10-20T10:48:52.445Z,40
2022-10-20T10:49:52.469Z,55
2022-10-20T10:50:52.517Z,65
2022-10-20T10:51:52.502Z,70
2022-10-20T10:52:53.575Z,65
2022-10-20T10:53:52.445Z,65
2022-10-20T10:54:52.448Z,65
2022-10-20T10:55:58.263Z,60
2022-10-20T10:56:52.640Z,60
2022-10-20T10:57:52.452Z,60
2022-10-20T10:58:52.475Z,60
2022-10-20T10:59:52.475Z,65
2022-10-20T11:00:52.776Z,60
2022-10-20T11:01:52.507Z,60
2022-10-20T11:02:52.487Z,60
2022-10-20T11:03:55.551Z,50
2022-10-20T11:04:52.468Z,45
2022-10-20T11:05:52.480Z,40
2022-10-20T11:06:58.131Z,40
2022-10-20T11:07:52.590Z,45
2022-10-20T11:08:52.843Z,40
2022-10-20T11:09:52.533Z,40
2022-10-20T11:10:52.549Z,35
2022-10-20T11:11:52.515Z,35
2022-10-20T11:12:52.541Z,40
2022-10-20T11:13:52.548Z,30
2022-10-20T11:15:01.330Z,30
2022-10-20T11:15:52.488Z,25
2022-10-20T11:16:52.531Z,30
2022-10-20T11:17:52.491Z,30
2022-10-20T11:18:52.533Z,35
2022-10-20T11:19:55.459Z,40
2022-10-20T11:20:52.483Z,40
2022-10-20T11:21:52.610Z,45
2022-10-20T11:22:52.575Z,50
2022-10-20T11:23:52.517Z,55
2022-10-20T11:24:55.654Z,55
2022-10-20T11:25:52.545Z,50
2022-10-20T11:26:52.540Z,55
2022-10-20T11:27:52.498Z,55
2022-10-20T11:28:52.534Z,45
2022-10-20T11:29:52.606Z,45
2022-10-20T11:30:55.309Z,45
2022-10-20T11:31:52.610Z,45
2022-10-20T11:32:52.501Z,35
2022-10-20T11:33:52.559Z,30
2022-10-20T11:34:52.666Z,35
2022-10-20T11:35:55.319Z,35
2022-10-20T11:36:52.518Z,30
2022-10-20T11:37:52.522Z,30
2022-10-20T11:38:52.601Z,35
2022-10-20T11:39:52.517Z,35
2022-10-20T11:40:52.563Z,35
2022-10-20T11:41:56.207Z,35
2022-10-20T11:42:52.554Z,40
2022-10-20T11:43:52.565Z,40
2022-10-20T11:44:52.859Z,30
2022-10-20T11:45:52.650Z,30
2022-10-20T11:46:55.612Z,30
2022-10-20T11:47:52.672Z,30
2022-10-20T11:48:52.545Z,35
2022-10-20T11:49:54.981Z,35
2022-10-20T11:50:52.866Z,35
2022-10-20T11:51:52.635Z,35
2022-10-20T11:52:55.341Z,35
2022-10-20T11:53:52.586Z,35
2022-10-20T11:54:52.639Z,40
2022-10-20T11:55:52.545Z,40
2022-10-20T11:56:52.698Z,40
2022-10-20T11:58:00.481Z,40
2022-10-20T11:58:52.590Z,40
2022-10-20T11:59:52.593Z,45
2022-10-20T12:00:53.233Z,45
2022-10-20T12:01:52.885Z,45
2022-10-20T12:02:55.463Z,40
2022-10-20T12:03:55.625Z,25
2022-10-20T12:04:52.609Z,25
2022-10-20T12:05:52.734Z,20
2022-10-20T12:06:52.790Z,20
2022-10-20T12:08:11.295Z,20
2022-10-20T12:08:56.013Z,20
2022-10-20T12:09:52.635Z,25
2022-10-20T12:10:52.658Z,25
2022-10-20T12:11:52.693Z,20
2022-10-20T12:12:52.749Z,20
2022-10-20T12:13:52.652Z,20
2022-10-20T12:14:56.718Z,20
2022-10-20T12:15:52.946Z,20
2022-10-20T12:16:52.639Z,20
2022-10-20T12:17:52.635Z,20
2022-10-20T12:18:52.805Z,20
2022-10-20T12:19:55.665Z,20
2022-10-20T12:20:52.697Z,20
2022-10-20T12:21:52.649Z,20
2022-10-20T12:22:52.654Z,20
2022-10-20T12:23:52.659Z,20
2022-10-20T12:24:52.600Z,15
2022-10-20T12:25:55.811Z,15
2022-10-20T12:26:54.090Z,15
2022-10-20T12:27:52.900Z,15
2022-10-20T12:28:52.826Z,15
2022-10-20T12:29:52.642Z,15
2022-10-20T12:30:55.506Z,15
2022-10-20T12:32:00.678Z,15
2022-10-20T12:32:52.660Z,15
2022-10-20T12:33:52.617Z,15
2022-10-20T12:34:52.856Z,15
2022-10-20T12:35:52.670Z,15
2022-10-20T12:36:53.880Z,15
2022-10-20T12:37:56.195Z,15
2022-10-20T12:38:52.810Z,15
2022-10-20T12:39:52.632Z,15
2022-10-20T12:40:52.721Z,15
2022-10-20T12:41:55.726Z,15
2022-10-20T12:42:52.721Z,15
2022-10-20T12:43:52.661Z,15
2022-10-20T12:44:52.650Z,15
2022-10-20T12:45:52.790Z,20
2022-10-20T12:46:53.694Z,20
2022-10-20T12:47:58.449Z,20
2022-10-20T12:48:52.696Z,20
2022-10-20T12:49:52.669Z,20
2022-10-20T12:50:52.656Z,20
2022-10-20T12:51:52.652Z,20
2022-10-20T12:52:55.452Z,20
2022-10-20T12:53:52.698Z,20
2022-10-20T12:54:57.545Z,20
2022-10-20T12:55:52.657Z,20
2022-10-20T12:56:53.152Z,20
2022-10-20T12:57:52.727Z,20
2022-10-20T12:58:55.749Z,20
2022-10-20T12:59:52.663Z,20
2022-10-20T13:00:53.115Z,20
2022-10-20T13:01:52.731Z,25
2022-10-20T13:02:52.721Z,25
2022-10-20T13:03:55.715Z,30
2022-10-20T13:04:54.655Z,30
2022-10-20T13:05:52.673Z,30
2022-10-20T13:06:52.873Z,25
2022-10-20T13:07:52.769Z,25
2022-10-20T13:08:56.101Z,20
2022-10-20T13:09:52.689Z,25
2022-10-20T13:10:52.541Z,25
2022-10-20T13:11:52.702Z,35
2022-10-20T13:12:52.751Z,25
2022-10-20T13:13:55.828Z,25
2022-10-20T13:14:52.848Z,25
2022-10-20T13:15:52.818Z,25
2022-10-20T13:16:52.745Z,25
2022-10-20T13:17:52.719Z,20
2022-10-20T13:18:52.722Z,20
2022-10-20T13:19:56.408Z,20
2022-10-20T13:20:52.701Z,20
2022-10-20T13:21:58.141Z,20
2022-10-20T13:22:53.137Z,20
2022-10-20T13:23:55.569Z,20
2022-10-20T13:24:59.104Z,20
2022-10-20T13:25:52.737Z,20
2022-10-20T13:26:52.744Z,20
2022-10-20T13:27:53.859Z,20
2022-10-20T13:28:52.715Z,20
2022-10-20T13:29:55.577Z,20
2022-10-20T13:30:55.794Z,20
2022-10-20T13:31:54.015Z,20
2022-10-20T13:34:08.605Z,20
2022-10-20T13:34:18.011Z,20
2022-10-20T13:35:17.978Z,20
2022-10-20T13:36:17.991Z,20
2022-10-20T13:37:23.887Z,20
2022-10-20T13:38:21.093Z,20
2022-10-20T13:39:18.009Z,20
2022-10-20T13:40:24.102Z,20
2022-10-20T13:41:17.989Z,20
2022-10-20T13:42:18.020Z,25
2022-10-20T13:43:18.039Z,25
2022-10-20T13:44:32.871Z,25
2022-10-20T13:45:18.108Z,20
2022-10-20T13:46:18.006Z,25
2022-10-20T13:47:17.999Z,25
2022-10-20T13:48:18.036Z,25
2022-10-20T13:49:20.915Z,25
2022-10-20T13:51:23.116Z,20
2022-10-20T13:52:18.039Z,20
2022-10-20T13:53:18.054Z,20
2022-10-20T13:54:18.022Z,20
2022-10-20T13:55:20.806Z,20
2022-10-20T13:56:18.005Z,20
2022-10-20T13:57:18.107Z,15
2022-10-20T13:58:18.146Z,15
2022-10-20T13:59:18.284Z,15
2022-10-20T14:00:21.260Z,15
2022-10-20T14:01:18.292Z,15
2022-10-20T14:02:23.333Z,15
2022-10-20T14:03:18.083Z,15
2022-10-20T14:04:18.031Z,15
2022-10-20T14:05:18.338Z,10
2022-10-20T14:06:20.838Z,10
2022-10-20T14:07:18.095Z,10
2022-10-20T14:08:23.401Z,10
2022-10-20T14:09:18.216Z,10
2022-10-20T14:10:18.048Z,10
2022-10-20T14:11:21.060Z,10
2022-10-20T14:12:18.062Z,10
2022-10-20T14:13:18.102Z,10
2022-10-20T14:14:18.065Z,10
2022-10-20T14:15:18.049Z,10
2022-10-20T14:16:18.157Z,10
2022-10-20T14:17:22.225Z,10
2022-10-20T14:18:18.098Z,10
2022-10-20T14:19:18.222Z,10
2022-10-20T14:20:18.095Z,10
2022-10-20T14:21:18.082Z,10
2022-10-20T14:22:20.850Z,10
2022-10-20T14:23:18.091Z,10
2022-10-20T14:24:18.116Z,10
2022-10-20T14:25:18.095Z,10
2022-10-20T14:26:18.214Z,10
2022-10-20T14:27:18.205Z,10
2022-10-20T14:28:18.094Z,10
2022-10-20T14:29:18.131Z,10
2022-10-20T14:30:18.122Z,10
2022-10-20T14:31:21.145Z,10
2022-10-20T14:32:18.085Z,10
2022-10-20T14:33:20.945Z,10
2022-10-20T14:34:18.111Z,10
2022-10-20T14:35:18.100Z,10
2022-10-20T14:36:18.290Z,10
2022-10-20T14:37:18.136Z,10